Time;durP1;ratioP1;P1;durP2;ratioP2;P2;SDS_P1;SDS_P2;PMS_P1;PMS_P2;Temp;Humidity;BMP_temperature;BMP_pressure;BME280_temperature;BME280_humidity;BME280_pressure;Samples;Min_cycle;Max_cycle;Signal;HPM_P1;HPM_P2
2023/10/02 00:01:36;;;;;;;13.13;10.13;;;;;;;17.13;59.67;95247.69;4166378;28;20055;-69
2023/10/02 00:03:40;;;;;;;12.75;9.80;;;;;;;17.14;59.61;95244.06;4160787;28;20096;-69
2023/10/02 00:05:52;;;;;;;10.20;9.10;;;;;;;17.11;59.26;95244.41;4161456;28;20068;-68
2023/10/02 00:07:54;;;;;;;13.57;9.65;;;;;;;17.08;59.19;95236.00;4166781;28;20041;-69
2023/10/02 00:09:56;;;;;;;11.35;9.25;;;;;;;17.05;59.40;95247.81;4172617;28;20055;-68
2023/10/02 00:11:59;;;;;;;15.88;8.98;;;;;;;16.96;59.18;95238.34;4164010;28;20048;-71
2023/10/02 00:16:25;;;;;;;12.10;8.60;;;;;;;17.09;58.99;95242.97;4154109;28;20586;-68
2023/10/02 00:18:27;;;;;;;12.98;8.48;;;;;;;17.15;58.47;95236.94;4158824;28;20338;-67
2023/10/02 00:20:29;;;;;;;14.23;8.07;;;;;;;17.13;58.34;95242.41;4171164;28;20057;-67
2023/10/02 00:22:43;;;;;;;16.27;8.75;;;;;;;17.10;58.13;95237.50;4166220;28;20488;-67
2023/10/02 00:24:47;;;;;;;;;;;;;;;17.12;57.96;95235.47;4152747;28;20167;-67
2023/10/02 00:26:51;;;;;;;12.52;7.63;;;;;;;17.15;58.12;95237.75;4164123;28;19924;-66
2023/10/02 00:28:53;;;;;;;9.80;7.55;;;;;;;17.12;58.14;95237.28;4167852;28;20051;-68
2023/10/02 00:30:54;;;;;;;12.52;7.70;;;;;;;17.11;57.95;95238.31;4157203;28;20104;-70
2023/10/02 00:32:58;;;;;;;9.98;7.60;;;;;;;17.06;58.21;95233.56;4161083;28;20053;-67
2023/10/02 00:35:04;;;;;;;10.98;7.85;;;;;;;17.06;58.08;95225.63;4165986;28;20053;-68
2023/10/02 00:37:08;;;;;;;12.43;7.78;;;;;;;17.08;57.90;95231.56;4168001;28;20081;-69
2023/10/02 00:39:30;;;;;;;13.93;7.60;;;;;;;17.11;57.82;95233.81;4174683;28;20076;-68
2023/10/02 00:41:32;;;;;;;8.18;7.10;;;;;;;17.12;57.62;95234.63;4165945;28;20475;-68
2023/10/02 00:43:34;;;;;;;12.07;7.57;;;;;;;17.08;57.33;95241.31;4162376;28;20123;-69
2023/10/02 00:45:39;;;;;;;13.70;6.60;;;;;;;17.12;57.36;95237.28;4155151;28;20350;-68
2023/10/02 00:47:50;;;;;;;10.48;7.20;;;;;;;17.09;57.28;95232.38;4162130;28;20428;-68
2023/10/02 00:50:06;;;;;;;11.25;7.63;;;;;;;17.12;57.31;95232.84;4155462;28;20080;-68
2023/10/02 00:52:09;;;;;;;10.48;6.75;;;;;;;17.12;57.13;95237.28;4147917;28;20417;-68
2023/10/02 00:54:34;;;;;;;10.10;6.65;;;;;;;17.06;57.08;95232.75;4161508;28;20141;-68
2023/10/02 00:56:34;;;;;;;9.32;7.13;;;;;;;17.05;57.07;95228.47;4160773;28;20041;-69
2023/10/02 00:58:38;;;;;;;10.55;6.72;;;;;;;16.99;57.07;95230.84;4159482;28;20049;-68
2023/10/02 01:00:48;;;;;;;9.20;6.68;;;;;;;16.98;57.07;95231.84;4160622;28;20132;-68
2023/10/02 01:02:57;;;;;;;14.35;6.82;;;;;;;17.03;57.19;95233.94;4151644;28;20072;-67
2023/10/02 01:04:59;;;;;;;15.50;6.93;;;;;;;17.03;56.99;95226.00;4159075;28;20049;-68
2023/10/02 01:07:11;;;;;;;12.80;7.10;;;;;;;17.03;57.04;95233.13;4170793;28;20131;-67
2023/10/02 01:09:18;;;;;;;10.98;7.22;;;;;;;16.98;57.18;95231.03;4150741;28;20380;-67
2023/10/02 01:11:20;;;;;;;11.43;6.68;;;;;;;16.92;56.92;95226.47;4161431;28;20104;-68
2023/10/02 01:13:27;;;;;;;15.32;6.40;;;;;;;16.91;57.01;95225.66;4151653;28;20049;-68
2023/10/02 01:15:29;;;;;;;8.10;6.75;;;;;;;16.85;56.72;95230.88;4160747;28;20049;-68
2023/10/02 01:17:50;;;;;;;10.52;6.47;;;;;;;16.88;56.96;95219.91;4149379;28;20187;-67
2023/10/02 01:19:57;;;;;;;10.40;6.57;;;;;;;16.84;56.93;95223.94;4161322;28;20474;-67
2023/10/02 01:21:59;;;;;;;10.52;6.95;;;;;;;16.88;56.72;95219.91;4173308;28;20057;-67
2023/10/02 01:24:07;;;;;;;13.13;7.00;;;;;;;16.87;56.71;95226.22;4160883;28;20128;-68
2023/10/02 01:26:09;;;;;;;9.38;6.40;;;;;;;16.87;56.68;95224.38;4170484;28;20507;-67
2023/10/02 01:28:13;;;;;;;9.38;6.45;;;;;;;16.80;56.60;95234.09;4161877;28;20506;-68
2023/10/02 01:30:16;;;;;;;13.80;6.57;;;;;;;16.74;57.17;95221.56;4159199;28;20058;-68
2023/10/02 01:32:18;;;;;;;12.65;6.60;;;;;;;16.72;56.75;95227.03;4161039;28;20128;-68
2023/10/02 01:34:33;;;;;;;10.25;5.75;;;;;;;16.65;56.81;95225.28;4173316;28;20057;-67
2023/10/02 01:36:38;;;;;;;8.70;6.28;;;;;;;16.72;56.82;95227.03;4164725;28;20160;-68
2023/10/02 01:38:41;;;;;;;11.23;6.53;;;;;;;16.66;56.99;95232.22;4172345;28;20061;-68
2023/10/02 01:41:10;;;;;;;12.15;6.50;;;;;;;16.65;56.68;95231.41;4174692;28;20411;-67
2023/10/02 01:43:15;;;;;;;11.40;6.57;;;;;;;16.62;57.07;95223.81;4178457;28;20068;-69
2023/10/02 01:45:18;;;;;;;9.60;6.50;;;;;;;16.67;56.96;95224.13;4170592;28;20046;-69
2023/10/02 01:47:20;;;;;;;9.95;6.53;;;;;;;16.66;56.65;95233.03;4169465;28;20139;-67
2023/10/02 01:49:26;;;;;;;8.70;5.95;;;;;;;16.65;56.61;95227.94;4171058;28;20053;-68
2023/10/02 01:51:28;;;;;;;12.15;6.85;;;;;;;16.58;56.79;95227.84;4175244;28;20037;-69
2023/10/02 01:53:32;;;;;;;11.90;6.45;;;;;;;16.59;56.59;95242.72;4164478;28;20053;-68
2023/10/02 01:55:36;;;;;;;;;;;;;;;16.53;56.75;95243.44;4163984;28;20119;-68
2023/10/02 01:57:38;;;;;;;9.07;6.95;;;;;;;16.52;56.71;95241.78;4171883;28;19921;-68
2023/10/02 01:59:40;;;;;;;8.55;6.22;;;;;;;16.57;56.69;95239.44;4162478;28;20054;-66
2023/10/02 02:01:56;;;;;;;11.05;5.85;;;;;;;16.55;56.68;95246.72;4169988;28;20530;-68
2023/10/02 02:03:59;;;;;;;9.93;6.32;;;;;;;16.52;56.78;95239.16;4171225;28;20141;-68
2023/10/02 02:06:10;;;;;;;10.88;6.03;;;;;;;16.54;56.41;95231.84;4162529;28;20057;-67
2023/10/02 02:08:22;;;;;;;9.57;5.93;;;;;;;16.52;56.47;95231.22;4163755;28;20046;-67
2023/10/02 02:10:27;;;;;;;11.27;6.50;;;;;;;16.48;56.56;95240.53;4158693;28;20060;-67
2023/10/02 02:12:44;;;;;;;10.10;5.70;;;;;;;16.38;56.56;95232.88;4170115;28;20049;-69
2023/10/02 02:14:50;;;;;;;10.38;5.70;;;;;;;16.36;56.92;95243.63;4161932;28;20103;-67
2023/10/02 02:16:53;;;;;;;10.32;6.45;;;;;;;16.31;56.62;95240.69;4159656;28;20045;-68
2023/10/02 02:18:55;;;;;;;9.23;6.10;;;;;;;16.34;56.50;95250.91;4153280;28;20531;-68
2023/10/02 02:21:02;;;;;;;10.10;5.93;;;;;;;16.34;56.42;95245.63;4162074;28;20456;-67
2023/10/02 02:23:07;;;;;;;10.15;5.72;;;;;;;16.33;55.62;95249.28;4159054;28;20489;-67
2023/10/02 02:25:09;;;;;;;14.35;6.03;;;;;;;16.21;56.07;95250.72;4160953;28;20070;-67
2023/10/02 02:27:11;;;;;;;9.55;5.95;;;;;;;16.25;56.18;95251.19;4163701;28;20509;-68
2023/10/02 02:29:23;;;;;;;11.82;5.82;;;;;;;16.30;56.05;95240.88;4166517;28;20117;-68
2023/10/02 02:31:29;;;;;;;9.95;6.43;;;;;;;16.28;55.89;95253.44;4169349;28;20052;-67
2023/10/02 02:33:38;;;;;;;11.82;5.97;;;;;;;16.28;55.67;95253.44;4162802;28;20479;-67
2023/10/02 02:35:40;;;;;;;12.70;5.80;;;;;;;16.33;55.64;95256.41;4163088;28;20045;-68
2023/10/02 02:37:43;;;;;;;9.18;6.13;;;;;;;16.30;55.44;95246.97;4161302;28;20480;-68
2023/10/02 02:39:46;;;;;;;8.93;5.57;;;;;;;16.22;55.26;95256.81;4163563;28;20049;-68
2023/10/02 02:46:53;;;;;;;11.75;5.50;;;;;;;16.08;54.75;95255.81;4157577;28;20060;-70
2023/10/02 02:48:56;;;;;;;9.57;6.18;;;;;;;15.98;55.20;95258.69;4163737;28;20136;-67
2023/10/02 02:51:14;;;;;;;9.95;6.35;;;;;;;15.91;55.50;95258.56;4164652;28;20512;-69
2023/10/02 02:53:21;;;;;;;11.65;6.30;;;;;;;15.85;55.57;95254.03;4175842;28;20059;-68
2023/10/02 02:55:24;;;;;;;8.98;5.65;;;;;;;15.85;55.74;95256.66;4160527;28;20056;-69
2023/10/02 02:57:27;;;;;;;9.95;5.78;;;;;;;15.77;56.11;95246.97;4151124;28;20075;-68
2023/10/02 02:59:30;;;;;;;14.93;7.10;;;;;;;15.67;56.22;95250.81;4163559;28;20047;-67
2023/10/02 03:01:32;;;;;;;9.40;6.38;;;;;;;15.70;56.39;95248.66;4163257;28;20054;-70
2023/10/02 03:03:34;;;;;;;9.27;5.97;;;;;;;15.71;55.45;95252.13;4162116;28;20457;-70
2023/10/02 03:05:41;;;;;;;9.93;5.20;;;;;;;15.76;54.97;95253.25;4150685;28;20366;-68
2023/10/02 03:07:44;;;;;;;11.15;5.72;;;;;;;15.74;54.29;95257.06;4162751;28;20120;-68
2023/10/02 03:09:47;;;;;;;13.05;5.85;;;;;;;15.73;54.33;95250.97;4163094;28;20067;-69
2023/10/02 03:11:48;;;;;;;10.48;5.85;;;;;;;15.70;53.90;95253.94;4169955;28;20544;-68
2023/10/02 03:13:50;;;;;;;11.50;5.38;;;;;;;15.62;53.83;95242.63;4164928;28;20510;-68
2023/10/02 03:15:53;;;;;;;12.45;5.53;;;;;;;15.66;53.75;95252.66;4176434;28;20411;-67
2023/10/02 03:17:58;;;;;;;11.70;5.28;;;;;;;15.63;53.53;95252.19;4164328;28;20065;-68
2023/10/02 03:20:01;;;;;;;8.43;5.03;;;;;;;15.55;53.50;95248.59;4159627;28;20053;-66
2023/10/02 03:22:02;;;;;;;11.35;5.43;;;;;;;15.56;53.04;95246.78;4176340;28;20037;-68
2023/10/02 03:24:07;;;;;;;8.32;5.07;;;;;;;15.53;53.23;95249.75;4176010;28;20068;-66
2023/10/02 03:26:38;;;;;;;10.10;5.60;;;;;;;15.54;53.26;95257.50;4164617;28;20053;-69
2023/10/02 03:28:41;;;;;;;11.73;5.40;;;;;;;15.53;52.98;95247.97;4162442;28;20060;-67
2023/10/02 03:30:46;;;;;;;12.48;5.40;;;;;;;15.55;52.77;95256.53;4161906;28;20445;-70
2023/10/02 03:32:48;;;;;;;10.30;5.68;;;;;;;15.47;52.89;95246.03;4151205;28;20056;-68
2023/10/02 03:35:02;;;;;;;8.48;5.20;;;;;;;15.50;52.40;95253.56;4162024;28;20758;-69
2023/10/02 03:39:23;;;;;;;8.32;5.43;;;;;;;15.53;51.95;95247.13;4166656;28;20466;-68
2023/10/02 03:41:44;;;;;;;8.70;5.25;;;;;;;15.45;52.15;95248.00;4161956;28;20411;-67
2023/10/02 03:43:48;;;;;;;10.05;6.13;;;;;;;15.41;52.27;95254.63;4162019;28;20049;-68
2023/10/02 03:45:51;;;;;;;;;;;;;;;15.48;52.11;95249.47;4154514;28;20057;-66
2023/10/02 03:48:02;;;;;;;8.18;5.03;;;;;;;15.42;51.88;95251.00;4161781;28;20374;-68
2023/10/02 03:50:10;;;;;;;10.20;5.25;;;;;;;15.41;52.09;95243.25;4155342;28;20184;-67
2023/10/02 03:52:14;;;;;;;11.82;5.57;;;;;;;15.39;51.60;95242.63;4160661;28;20049;-68
2023/10/02 03:54:21;;;;;;;8.90;5.63;;;;;;;15.38;51.64;95239.16;4155087;28;20053;-68
2023/10/02 03:56:39;;;;;;;8.70;5.13;;;;;;;15.38;51.22;95249.72;4160852;28;20084;-69
2023/10/02 03:58:41;;;;;;;9.05;5.53;;;;;;;15.34;51.32;95253.72;4162038;28;20076;-68
2023/10/02 04:00:46;;;;;;;8.65;5.15;;;;;;;15.33;51.41;95250.22;4159845;28;20068;-69
2023/10/02 04:02:53;;;;;;;11.38;4.93;;;;;;;15.40;50.89;95253.00;4164142;28;20049;-70
2023/10/02 04:04:55;;;;;;;10.52;5.25;;;;;;;15.38;50.92;95256.78;4163090;28;20483;-69
2023/10/02 04:06:58;;;;;;;9.85;5.00;;;;;;;15.44;50.71;95251.63;4164229;28;20135;-70
2023/10/02 04:09:21;;;;;;;11.73;5.47;;;;;;;15.47;50.58;95259.22;4163127;28;20338;-72
2023/10/02 04:11:24;;;;;;;8.73;5.00;;;;;;;15.44;50.46;95258.75;4164811;28;20049;-70
2023/10/02 04:13:38;;;;;;;7.97;4.72;;;;;;;15.42;50.62;95261.53;4162256;28;20053;-70
2023/10/02 04:15:43;;;;;;;9.90;4.82;;;;;;;15.38;50.52;95259.44;4161677;28;20041;-71
2023/10/02 04:17:49;;;;;;;9.45;5.30;;;;;;;15.30;50.94;95273.53;4167117;28;20045;-71
2023/10/02 04:20:01;;;;;;;11.50;5.00;;;;;;;15.28;50.82;95268.41;4160991;28;20050;-71
2023/10/02 04:22:06;;;;;;;10.35;5.20;;;;;;;15.35;50.90;95271.16;4161409;28;20045;-69
2023/10/02 04:24:09;;;;;;;9.55;4.93;;;;;;;15.41;50.43;95270.47;4168032;28;20107;-67
2023/10/02 04:26:22;;;;;;;11.73;4.90;;;;;;;15.39;50.72;95272.47;4155502;28;20060;-69
2023/10/02 04:28:27;;;;;;;8.82;4.90;;;;;;;15.29;50.62;95272.72;4138812;28;20041;-69
2023/10/02 04:30:35;;;;;;;8.95;4.35;;;;;;;15.27;50.94;95287.06;4161574;28;20049;-71
2023/10/02 04:32:42;;;;;;;6.82;4.18;;;;;;;15.28;51.12;95276.31;4156057;28;20814;-71
2023/10/02 04:34:56;;;;;;;10.98;4.97;;;;;;;15.26;51.13;95298.63;4162376;28;20416;-70
2023/10/02 04:37:12;;;;;;;10.75;4.28;;;;;;;15.14;51.64;95290.25;4164388;28;20463;-70
2023/10/02 04:42:05;;;;;;;7.88;4.30;;;;;;;15.22;51.07;95294.69;4160262;28;20061;-70
2023/10/02 04:43:57;;;;;;;9.20;4.20;;;;;;;15.29;50.95;95287.69;4152092;28;20057;-71
2023/10/02 04:46:08;;;;;;;13.65;5.32;;;;;;;15.31;50.85;95281.25;4160872;28;20103;-67
2023/10/02 04:48:11;;;;;;;11.35;4.80;;;;;;;15.36;50.79;95293.94;4168511;28;20463;-69
2023/10/02 04:52:15;;;;;;;9.13;4.47;;;;;;;15.33;50.72;95296.91;4162409;28;20424;-70
2023/10/02 04:54:20;;;;;;;7.50;4.35;;;;;;;15.35;51.00;95300.22;4156188;28;20492;-68
2023/10/02 04:56:25;;;;;;;8.30;4.38;;;;;;;15.41;50.60;95299.53;4163084;28;20049;-70
2023/10/02 04:58:28;;;;;;;9.65;4.70;;;;;;;15.47;50.39;95306.75;4161877;28;20468;-71
2023/10/02 05:00:33;;;;;;;12.07;4.47;;;;;;;15.34;50.44;95311.78;4163051;28;20052;-70
2023/10/02 05:02:39;;;;;;;9.23;4.43;;;;;;;15.39;50.57;95304.16;4158081;28;20449;-68
2023/10/02 05:04:42;;;;;;;8.73;4.45;;;;;;;15.37;50.71;95303.50;4161733;28;20393;-71
2023/10/02 05:06:44;;;;;;;;;;;;;;;15.36;50.38;95299.22;4161033;28;20045;-72
2023/10/02 05:10:57;;;;;;;8.82;4.60;;;;;;;15.41;50.36;95304.81;4168089;28;20498;-71
2023/10/02 05:12:59;;;;;;;8.43;4.13;;;;;;;15.44;50.14;95301.78;4156461;28;20121;-70
2023/10/02 05:15:07;;;;;;;10.90;4.28;;;;;;;15.38;50.06;95299.88;4174440;28;20500;-72
2023/10/02 05:17:18;;;;;;;10.18;3.88;;;;;;;15.34;50.01;95299.41;4167751;28;20059;-70
2023/10/02 05:19:50;;;;;;;8.70;3.95;;;;;;;15.34;50.28;95302.03;4178434;28;20060;-70
2023/10/02 05:21:55;;;;;;;9.25;4.07;;;;;;;15.43;49.96;95300.16;4161822;28;20136;-68
2023/10/02 05:24:00;;;;;;;17.60;4.38;;;;;;;15.47;50.09;95303.28;4164438;28;20053;-70
2023/10/02 05:26:04;;;;;;;9.07;3.90;;;;;;;15.55;49.75;95309.34;4172606;28;20057;-68
2023/10/02 05:28:07;;;;;;;11.05;4.47;;;;;;;15.55;49.83;95304.06;4165155;28;20263;-69
2023/10/02 05:30:17;;;;;;;9.18;4.18;;;;;;;15.56;49.66;95308.34;4168940;28;20084;-70
2023/10/02 05:32:23;;;;;;;9.07;3.95;;;;;;;15.56;49.74;95315.44;4179283;28;20055;-71
2023/10/02 05:34:27;;;;;;;7.18;4.18;;;;;;;15.60;49.84;95318.56;4168635;28;20045;-70
2023/10/02 05:36:29;;;;;;;10.00;3.83;;;;;;;15.72;49.45;95319.81;4164893;28;20511;-70
2023/10/02 05:38:33;;;;;;;9.52;3.90;;;;;;;15.82;49.04;95341.53;4164982;28;20123;-69
2023/10/02 05:40:38;;;;;;;6.72;4.00;;;;;;;15.80;49.00;95325.06;4169093;28;20506;-70
2023/10/02 05:42:46;;;;;;;9.15;4.15;;;;;;;15.88;48.96;95322.34;4171309;28;20101;-69
2023/10/02 05:44:48;;;;;;;8.15;3.72;;;;;;;15.96;48.86;95319.66;4172507;28;20459;-72
2023/10/02 05:46:55;;;;;;;7.65;4.15;;;;;;;15.88;48.94;95322.34;4166970;28;20420;-72
2023/10/02 05:49:02;;;;;;;7.63;4.10;;;;;;;15.90;48.58;95328.28;4157402;28;20057;-70
2023/10/02 05:51:09;;;;;;;10.30;4.75;;;;;;;15.94;48.58;95324.28;4152699;28;20057;-71
2023/10/02 05:53:11;;;;;;;13.40;4.15;;;;;;;16.04;48.37;95325.88;4173050;28;20098;-70
2023/10/02 05:55:17;;;;;;;7.25;3.95;;;;;;;16.14;48.42;95326.44;4179799;28;20049;-70
2023/10/02 05:57:19;;;;;;;13.07;3.83;;;;;;;16.29;48.15;95326.50;4162794;28;20050;-71
2023/10/02 05:59:24;;;;;;;9.50;4.17;;;;;;;16.26;47.93;95327.69;4164343;28;20061;-70
2023/10/02 06:01:26;;;;;;;6.80;3.60;;;;;;;16.28;47.75;95325.69;4164277;28;20152;-70
2023/10/02 06:03:36;;;;;;;8.77;3.70;;;;;;;16.29;47.84;95326.50;4163209;28;20630;-73
2023/10/02 06:06:06;;;;;;;8.80;3.97;;;;;;;16.30;47.80;95326.28;4161917;28;20046;-71
2023/10/02 06:08:06;;;;;;;11.55;4.40;;;;;;;16.27;47.96;95333.78;4164546;28;20049;-71
2023/10/02 06:11:08;;;;;;;10.07;4.55;;;;;;;16.28;48.01;95336.25;4151237;28;20049;-71
2023/10/02 06:12:43;;;;;;;10.07;4.43;;;;;;;16.00;48.75;95338.59;4163698;28;20056;-70
2023/10/02 06:14:45;;;;;;;12.63;4.95;;;;;;;16.04;48.66;95331.16;4164404;28;20450;-71
2023/10/02 06:16:49;;;;;;;9.10;3.97;;;;;;;16.17;48.21;95339.28;4174241;28;20053;-68
2023/10/02 06:19:00;;;;;;;8.85;4.57;;;;;;;16.16;47.90;95342.97;4152894;28;20045;-70
2023/10/02 06:21:03;;;;;;;13.43;5.15;;;;;;;16.04;48.03;95341.72;4167856;28;20072;-69
2023/10/02 06:23:19;;;;;;;9.55;5.18;;;;;;;16.34;48.52;95342.63;4153788;28;20542;-69
2023/10/02 06:25:22;;;;;;;11.63;5.13;;;;;;;16.47;47.33;95340.19;4152018;28;20056;-71
2023/10/02 06:27:25;;;;;;;16.98;5.10;;;;;;;16.40;47.57;95347.22;4163106;28;20064;-70
2023/10/02 06:29:29;;;;;;;8.75;4.18;;;;;;;16.50;47.28;95339.03;4164710;28;20099;-71
2023/10/02 06:31:42;;;;;;;10.82;4.10;;;;;;;16.73;47.00;95347.69;4151627;28;20096;-70
2023/10/02 06:33:44;;;;;;;11.32;3.85;;;;;;;16.88;46.30;95339.00;4166123;28;20057;-70
2023/10/02 06:35:46;;;;;;;9.05;4.47;;;;;;;16.86;46.48;95349.75;4165129;28;20045;-70
2023/10/02 06:37:49;;;;;;;8.63;3.75;;;;;;;16.80;46.60;95358.44;4164551;28;20050;-69
2023/10/02 06:40:14;;;;;;;7.30;3.80;;;;;;;16.77;46.33;95359.56;4164796;28;20128;-71
2023/10/02 06:42:19;;;;;;;10.10;3.97;;;;;;;16.68;46.48;95351.91;4152105;28;20095;-71
2023/10/02 06:44:21;;;;;;;8.43;4.13;;;;;;;16.68;46.80;95358.00;4161303;28;20053;-70
2023/10/02 06:46:24;;;;;;;9.45;3.35;;;;;;;16.50;47.27;95363.66;4168347;28;20049;-70
2023/10/02 06:48:29;;;;;;;7.13;3.97;;;;;;;16.61;47.28;95372.16;4168921;28;20468;-70
2023/10/02 06:50:31;;;;;;;9.82;4.65;;;;;;;16.70;47.04;95374.53;4162612;28;20049;-70
2023/10/02 06:52:33;;;;;;;10.73;4.47;;;;;;;16.52;47.44;95377.53;4163632;28;20074;-69
2023/10/02 06:54:42;;;;;;;11.45;4.43;;;;;;;16.30;48.09;95373.06;4163435;28;20049;-68
2023/10/02 06:56:46;;;;;;;9.77;4.65;;;;;;;16.20;48.06;95375.97;4164135;28;20053;-72
2023/10/02 06:58:49;;;;;;;7.75;3.85;;;;;;;15.76;49.53;95384.50;4151448;28;20056;-73
2023/10/02 07:00:55;;;;;;;8.98;4.43;;;;;;;15.90;49.51;95370.56;4160740;28;20056;-74
2023/10/02 07:02:57;;;;;;;10.73;4.30;;;;;;;15.65;49.73;95382.25;4161697;28;20457;-71
2023/10/02 07:05:00;;;;;;;12.65;5.60;;;;;;;15.75;49.49;95383.69;4162512;28;20045;-71
2023/10/02 07:07:07;;;;;;;11.25;5.15;;;;;;;15.74;49.74;95386.50;4154469;28;20057;-71
2023/10/02 07:09:13;;;;;;;9.32;3.83;;;;;;;15.97;49.46;95379.41;4162420;28;20081;-71
2023/10/02 07:11:18;;;;;;;10.63;4.85;;;;;;;16.10;48.98;95381.47;4163792;28;20603;-71
2023/10/02 07:13:22;;;;;;;11.45;4.55;;;;;;;16.25;48.64;95378.06;4163018;28;20474;-70
2023/10/02 07:15:26;;;;;;;11.73;4.28;;;;;;;16.43;48.31;95380.41;4162778;28;20060;-70
2023/10/02 07:17:30;;;;;;;10.07;4.78;;;;;;;16.67;48.33;95377.56;4153335;28;20133;-71
2023/10/02 07:19:38;;;;;;;13.77;5.45;;;;;;;16.65;47.98;95376.91;4162736;28;20054;-69
2023/10/02 07:21:40;;;;;;;11.95;5.32;;;;;;;16.49;48.60;95379.69;4164307;28;20128;-72
2023/10/02 07:23:44;;;;;;;7.47;4.30;;;;;;;16.56;48.76;95385.91;4160308;28;20045;-69
2023/10/02 07:25:56;;;;;;;;;;;;;;;16.51;48.41;95372.41;4162914;28;20049;-70
2023/10/02 07:27:58;;;;;;;7.15;4.18;;;;;;;16.41;48.78;95382.41;4165434;28;20367;-69
2023/10/02 07:30:02;;;;;;;9.95;5.15;;;;;;;16.63;48.40;95376.25;4162339;28;20060;-70
2023/10/02 07:32:05;;;;;;;8.35;4.05;;;;;;;16.68;48.16;95373.06;4152217;28;20122;-72
2023/10/02 07:34:08;;;;;;;10.13;4.63;;;;;;;16.70;48.44;95365.78;4165920;28;20052;-71
2023/10/02 07:36:14;;;;;;;12.80;4.25;;;;;;;16.86;47.96;95370.91;4167947;28;20111;-70
2023/10/02 07:38:18;;;;;;;11.80;4.68;;;;;;;16.98;47.81;95379.25;4167746;28;20073;-70
2023/10/02 07:40:20;;;;;;;9.65;4.35;;;;;;;17.12;47.91;95365.19;4167684;28;20045;-70
2023/10/02 07:42:30;;;;;;;12.25;5.47;;;;;;;17.33;47.48;95371.56;4166288;28;20053;-70
2023/10/02 07:44:36;;;;;;;10.93;6.28;;;;;;;17.44;46.91;95378.22;4162675;28;20041;-70
2023/10/02 07:46:40;;;;;;;11.30;5.43;;;;;;;17.57;46.65;95375.72;4165852;28;20037;-72
2023/10/02 07:48:55;;;;;;;14.65;6.90;;;;;;;17.26;47.25;95381.25;4173129;28;20136;-71
2023/10/02 07:50:59;;;;;;;10.00;4.57;;;;;;;17.29;47.00;95380.88;4161823;28;20049;-70
2023/10/02 07:53:04;;;;;;;12.88;6.40;;;;;;;17.32;47.09;95385.81;4163008;28;20045;-71
2023/10/02 07:55:10;;;;;;;10.02;5.07;;;;;;;17.00;47.68;95385.19;4161062;28;20045;-72
2023/10/02 07:57:13;;;;;;;9.90;5.38;;;;;;;16.93;47.85;95386.91;4154600;28;20467;-71
2023/10/02 07:59:18;;;;;;;11.85;4.95;;;;;;;17.09;47.38;95396.50;4153149;28;20037;-68
2023/10/02 08:01:25;;;;;;;17.02;4.53;;;;;;;17.23;46.83;95385.09;4164503;28;20076;-69
2023/10/02 08:03:36;;;;;;;9.50;4.55;;;;;;;17.20;47.29;95388.91;4162707;28;20060;-72
2023/10/02 08:05:38;;;;;;;9.73;4.65;;;;;;;17.32;47.09;95380.53;4159466;28;20073;-72
2023/10/02 08:07:41;;;;;;;9.75;4.40;;;;;;;17.27;46.89;95388.19;4163064;28;20077;-72
2023/10/02 08:09:49;;;;;;;9.85;4.55;;;;;;;17.52;46.52;95383.41;4162279;28;20050;-71
2023/10/02 08:11:53;;;;;;;12.90;4.45;;;;;;;17.78;46.47;95374.94;4169379;28;20148;-71
2023/10/02 08:13:55;;;;;;;8.48;4.65;;;;;;;17.94;46.08;95380.06;4143117;28;20046;-72
2023/10/02 08:15:58;;;;;;;11.02;5.20;;;;;;;17.94;45.17;95379.22;4156803;28;20129;-70
2023/10/02 08:18:04;;;;;;;11.45;5.32;;;;;;;17.49;46.49;95389.09;4160059;28;20546;-70
2023/10/02 08:20:15;;;;;;;10.75;4.80;;;;;;;17.10;47.85;95398.97;4173061;28;20541;-70
2023/10/02 08:22:20;;;;;;;9.52;4.70;;;;;;;16.53;49.00;95384.44;4169511;28;20054;-71
2023/10/02 08:24:21;;;;;;;10.45;4.72;;;;;;;16.83;48.10;95381.88;4154991;28;20046;-72
2023/10/02 08:26:23;;;;;;;11.95;4.60;;;;;;;16.78;48.19;95385.03;4150166;28;20073;-71
2023/10/02 08:28:35;;;;;;;16.52;5.45;;;;;;;16.70;48.36;95389.59;4177129;28;20437;-70
2023/10/02 08:30:37;;;;;;;13.15;5.25;;;;;;;16.71;48.49;95378.84;4176071;28;20057;-71
2023/10/02 08:32:40;;;;;;;9.95;4.80;;;;;;;16.82;48.29;95390.00;4165323;28;20053;-71
2023/10/02 08:34:44;;;;;;;13.02;5.30;;;;;;;16.84;48.59;95391.44;4171370;28;20061;-70
2023/10/02 08:37:05;;;;;;;13.10;5.90;;;;;;;16.99;48.29;95383.53;4157489;28;20050;-71
2023/10/02 08:39:08;;;;;;;9.60;4.57;;;;;;;17.40;47.56;95391.00;4162396;28;20124;-72
2023/10/02 08:41:19;;;;;;;17.27;5.75;;;;;;;17.67;46.50;95388.69;4155488;28;20042;-71
2023/10/02 08:43:22;;;;;;;8.57;4.80;;;;;;;17.92;45.78;95375.97;4171121;28;20133;-71
2023/10/02 08:45:24;;;;;;;6.97;4.53;;;;;;;17.61;46.38;95388.41;4166476;28;20639;-71
2023/10/02 08:47:27;;;;;;;15.07;5.00;;;;;;;17.19;47.01;95394.41;4168853;28;20087;-71
2023/10/02 08:49:30;;;;;;;9.52;5.50;;;;;;;17.22;47.09;95385.28;4162940;28;20049;-69
2023/10/02 08:51:33;;;;;;;12.18;5.60;;;;;;;17.26;47.21;95382.06;4165904;28;20479;-72
2023/10/02 08:53:35;;;;;;;11.82;5.35;;;;;;;16.97;47.62;95383.72;4176875;28;20049;-72
2023/10/02 08:55:51;;;;;;;8.98;4.80;;;;;;;17.11;47.71;95375.97;4177891;28;20096;-70
2023/10/02 08:57:55;;;;;;;11.90;4.65;;;;;;;17.05;47.65;95379.34;4166138;28;20570;-70
2023/10/02 09:00:15;;;;;;;11.60;5.28;;;;;;;17.25;47.45;95364.56;4165267;28;20546;-73
2023/10/02 09:02:18;;;;;;;12.93;5.68;;;;;;;17.70;46.37;95362.66;4153616;28;20132;-72
2023/10/02 09:06:36;;;;;;;13.20;4.55;;;;;;;17.89;45.30;95363.88;4165523;28;20049;-72
2023/10/02 09:09:12;;;;;;;9.50;4.95;;;;;;;18.30;45.35;95371.19;4163707;28;20161;-72
2023/10/02 09:11:06;;;;;;;14.80;4.63;;;;;;;18.67;44.63;95369.28;4169486;28;20146;-73
2023/10/02 09:13:17;;;;;;;14.80;5.60;;;;;;;18.11;45.56;95366.53;4174283;28;20462;-71
2023/10/02 09:15:30;;;;;;;10.93;5.03;;;;;;;18.46;44.75;95356.06;4178179;28;20128;-72
2023/10/02 09:17:46;;;;;;;8.23;4.72;;;;;;;18.71;44.06;95359.09;4180709;28;20410;-71
2023/10/02 09:20:00;;;;;;;9.73;4.80;;;;;;;18.88;43.33;95357.00;4168593;28;20496;-71
2023/10/02 09:22:10;;;;;;;9.77;4.47;;;;;;;18.95;43.47;95363.16;4156080;28;20425;-72
2023/10/02 09:24:19;;;;;;;14.27;4.93;;;;;;;18.20;44.04;95366.25;4166982;28;20053;-72
2023/10/02 09:26:24;;;;;;;12.65;5.13;;;;;;;18.42;44.04;95350.31;4159278;28;20046;-72
2023/10/02 09:28:41;;;;;;;10.45;4.75;;;;;;;18.84;42.89;95359.19;4163856;28;20045;-72
2023/10/02 09:30:45;;;;;;;12.02;5.13;;;;;;;19.20;42.49;95356.34;4164099;28;20054;-71
2023/10/02 09:32:52;;;;;;;11.45;5.18;;;;;;;19.40;42.11;95366.25;4163537;28;20050;-71
2023/10/02 09:35:11;;;;;;;14.02;5.03;;;;;;;19.54;41.25;95357.34;4174336;28;20417;-70
2023/10/02 09:37:35;;;;;;;15.65;5.30;;;;;;;19.53;40.23;95352.22;4158876;28;20080;-70
2023/10/02 09:39:57;;;;;;;13.90;5.82;;;;;;;19.10;41.41;95349.75;4159784;28;20412;-73
2023/10/02 09:42:07;;;;;;;10.18;4.85;;;;;;;18.83;41.48;95355.72;4154606;28;20048;-71
2023/10/02 09:44:16;;;;;;;12.73;5.90;;;;;;;18.99;41.41;95357.28;4163339;28;20053;-74
2023/10/02 09:46:28;;;;;;;13.18;5.78;;;;;;;19.14;41.02;95351.81;4166200;28;20077;-70
2023/10/02 09:50:54;;;;;;;8.40;5.35;;;;;;;18.34;41.23;95359.22;4165267;28;20049;-72
2023/10/02 09:53:08;;;;;;;11.63;5.45;;;;;;;18.10;41.79;95346.34;4178358;28;20057;-71
2023/10/02 09:55:16;;;;;;;8.68;4.70;;;;;;;18.06;41.62;95355.69;4178603;28;20052;-72
2023/10/02 09:57:25;;;;;;;10.80;5.82;;;;;;;18.42;41.89;95353.78;4178108;28;20128;-71
2023/10/02 09:59:27;;;;;;;10.05;5.18;;;;;;;18.98;40.79;95354.81;4179006;28;20505;-72
2023/10/02 10:01:35;;;;;;;14.73;4.90;;;;;;;19.27;39.51;95356.38;4168071;28;20131;-72
2023/10/02 10:03:48;;;;;;;9.50;4.57;;;;;;;19.55;38.90;95352.84;4163547;28;20405;-72
2023/10/02 10:06:16;;;;;;;15.57;6.47;;;;;;;18.87;39.46;95368.63;4161568;28;20128;-72
2023/10/02 10:08:19;;;;;;;12.15;6.35;;;;;;;18.69;40.21;95364.59;4164648;28;20283;-72
2023/10/02 10:10:50;;;;;;;10.13;5.43;;;;;;;19.08;39.32;95357.94;4151732;28;20128;-72
2023/10/02 10:12:54;;;;;;;10.07;6.03;;;;;;;18.57;39.20;95364.31;4164008;28;20053;-71
2023/10/02 10:15:31;;;;;;;10.10;5.07;;;;;;;19.01;38.65;95362.38;4174931;28;20132;-72